sensor_id;sensor_type;location;lat;lon;timestamp;P1;durP1;ratioP1;P2;durP2;ratioP2
6093;SDS011;19964;42.060;24.700;2023-07-29T07:33:43;9.07;;;4.63;;
6093;SDS011;19964;42.060;24.700;2023-07-29T07:36:10;4.80;;;4.30;;
6093;SDS011;19964;42.060;24.700;2023-07-29T07:38:38;4.75;;;4.25;;
6093;SDS011;19964;42.060;24.700;2023-07-29T07:43:33;6.57;;;4.10;;
6093;SDS011;19964;42.060;24.700;2023-07-29T07:53:21;4.47;;;3.80;;
6093;SDS011;19964;42.060;24.700;2023-07-29T07:55:50;5.60;;;4.30;;
6093;SDS011;19964;42.060;24.700;2023-07-29T07:58:19;4.80;;;3.78;;
6093;SDS011;19964;42.060;24.700;2023-07-29T08:00:46;6.60;;;4.43;;
6093;SDS011;19964;42.060;24.700;2023-07-29T08:03:13;6.97;;;4.10;;
6093;SDS011;19964;42.060;24.700;2023-07-29T08:05:40;5.22;;;3.97;;
6093;SDS011;19964;42.060;24.700;2023-07-29T08:08:07;4.80;;;4.40;;
6093;SDS011;19964;42.060;24.700;2023-07-29T08:10:35;4.90;;;4.40;;
6093;SDS011;19964;42.060;24.700;2023-07-29T08:54:48;7.75;;;4.60;;
6093;SDS011;19964;42.060;24.700;2023-07-29T08:57:17;4.75;;;4.35;;
6093;SDS011;19964;42.060;24.700;2023-07-29T08:59:47;4.95;;;4.25;;
6093;SDS011;19964;42.060;24.700;2023-07-29T09:02:14;5.47;;;4.25;;
6093;SDS011;19964;42.060;24.700;2023-07-29T09:04:43;9.00;;;4.80;;
6093;SDS011;19964;42.060;24.700;2023-07-29T09:07:11;4.82;;;4.43;;
6093;SDS011;19964;42.060;24.700;2023-07-29T09:09:39;10.38;;;4.47;;
6093;SDS011;19964;42.060;24.700;2023-07-29T09:12:06;5.57;;;3.85;;
6093;SDS011;19964;42.060;24.700;2023-07-29T09:14:34;4.43;;;4.07;;
6093;SDS011;19964;42.060;24.700;2023-07-29T09:17:01;6.28;;;4.40;;
6093;SDS011;19964;42.060;24.700;2023-07-29T09:19:28;4.40;;;4.00;;
6093;SDS011;19964;42.060;24.700;2023-07-29T09:22:00;6.30;;;4.20;;
6093;SDS011;19964;42.060;24.700;2023-07-29T09:24:28;5.93;;;4.20;;
6093;SDS011;19964;42.060;24.700;2023-07-29T09:26:57;3.95;;;3.60;;
6093;SDS011;19964;42.060;24.700;2023-07-29T09:29:24;3.90;;;3.60;;
6093;SDS011;19964;42.060;24.700;2023-07-29T09:31:59;4.38;;;3.97;;
6093;SDS011;19964;42.060;24.700;2023-07-29T09:34:44;5.07;;;3.63;;
6093;SDS011;19964;42.060;24.700;2023-07-29T09:37:20;3.80;;;3.47;;
6093;SDS011;19964;42.060;24.700;2023-07-29T09:39:50;4.22;;;3.80;;
6093;SDS011;19964;42.060;24.700;2023-07-29T09:42:21;4.75;;;4.03;;
6093;SDS011;19964;42.060;24.700;2023-07-29T09:44:49;4.20;;;3.90;;
6093;SDS011;19964;42.060;24.700;2023-07-29T09:47:20;5.68;;;3.83;;
6093;SDS011;19964;42.060;24.700;2023-07-29T09:49:50;6.63;;;4.00;;
6093;SDS011;19964;42.060;24.700;2023-07-29T09:52:18;6.00;;;3.30;;
6093;SDS011;19964;42.060;24.700;2023-07-29T09:54:46;3.80;;;3.47;;
6093;SDS011;19964;42.060;24.700;2023-07-29T09:57:15;4.13;;;3.83;;
6093;SDS011;19964;42.060;24.700;2023-07-29T09:59:55;3.95;;;3.35;;
6093;SDS011;19964;42.060;24.700;2023-07-29T10:02:26;4.13;;;3.70;;
6093;SDS011;19964;42.060;24.700;2023-07-29T10:04:54;4.25;;;3.60;;
6093;SDS011;19964;42.060;24.700;2023-07-29T10:07:23;9.93;;;3.65;;
6093;SDS011;19964;42.060;24.700;2023-07-29T10:09:53;4.90;;;3.78;;
6093;SDS011;19964;42.060;24.700;2023-07-29T10:12:24;3.20;;;2.90;;
6093;SDS011;19964;42.060;24.700;2023-07-29T10:14:51;4.80;;;3.88;;
6093;SDS011;19964;42.060;24.700;2023-07-29T10:17:19;3.60;;;3.30;;
6093;SDS011;19964;42.060;24.700;2023-07-29T10:19:48;4.00;;;3.60;;
6093;SDS011;19964;42.060;24.700;2023-07-29T10:22:16;4.15;;;3.42;;
6093;SDS011;19964;42.060;24.700;2023-07-29T10:24:47;3.78;;;3.47;;
6093;SDS011;19964;42.060;24.700;2023-07-29T10:27:16;5.10;;;3.72;;
6093;SDS011;19964;42.060;24.700;2023-07-29T10:29:47;4.25;;;3.85;;
6093;SDS011;19964;42.060;24.700;2023-07-29T10:32:15;3.55;;;3.35;;
6093;SDS011;19964;42.060;24.700;2023-07-29T10:34:42;3.80;;;3.50;;
6093;SDS011;19964;42.060;24.700;2023-07-29T10:37:10;4.03;;;3.67;;
6093;SDS011;19964;42.060;24.700;2023-07-29T10:39:38;4.40;;;4.00;;
6093;SDS011;19964;42.060;24.700;2023-07-29T10:42:06;4.82;;;4.05;;
6093;SDS011;19964;42.060;24.700;2023-07-29T10:44:47;3.88;;;3.58;;
6093;SDS011;19964;42.060;24.700;2023-07-29T10:47:20;3.65;;;3.40;;
6093;SDS011;19964;42.060;24.700;2023-07-29T10:49:49;5.85;;;3.80;;
6093;SDS011;19964;42.060;24.700;2023-07-29T10:52:30;4.45;;;3.88;;
6093;SDS011;19964;42.060;24.700;2023-07-29T10:55:04;3.67;;;3.17;;
6093;SDS011;19964;42.060;24.700;2023-07-29T10:57:50;3.55;;;3.20;;
6093;SDS011;19964;42.060;24.700;2023-07-29T11:00:20;4.43;;;3.00;;
6093;SDS011;19964;42.060;24.700;2023-07-29T11:02:59;6.13;;;3.15;;
6093;SDS011;19964;42.060;24.700;2023-07-29T11:05:28;3.05;;;2.85;;
6093;SDS011;19964;42.060;24.700;2023-07-29T11:08:15;6.40;;;3.22;;
6093;SDS011;19964;42.060;24.700;2023-07-29T11:11:03;3.38;;;3.08;;
6093;SDS011;19964;42.060;24.700;2023-07-29T11:13:33;4.80;;;3.10;;
6093;SDS011;19964;42.060;24.700;2023-07-29T11:16:03;3.10;;;2.90;;
6093;SDS011;19964;42.060;24.700;2023-07-29T11:18:31;3.90;;;3.13;;
6093;SDS011;19964;42.060;24.700;2023-07-29T11:21:00;5.68;;;3.22;;
6093;SDS011;19964;42.060;24.700;2023-07-29T11:23:29;3.13;;;2.92;;
6093;SDS011;19964;42.060;24.700;2023-07-29T11:25:57;3.05;;;2.80;;
6093;SDS011;19964;42.060;24.700;2023-07-29T11:28:25;4.10;;;3.00;;
6093;SDS011;19964;42.060;24.700;2023-07-29T11:30:55;3.33;;;3.10;;
6093;SDS011;19964;42.060;24.700;2023-07-29T11:33:27;3.63;;;3.33;;
6093;SDS011;19964;42.060;24.700;2023-07-29T11:35:55;4.43;;;3.00;;
6093;SDS011;19964;42.060;24.700;2023-07-29T11:38:22;5.32;;;3.35;;
6093;SDS011;19964;42.060;24.700;2023-07-29T11:40:56;4.35;;;3.35;;
6093;SDS011;19964;42.060;24.700;2023-07-29T11:43:25;3.70;;;3.40;;
6093;SDS011;19964;42.060;24.700;2023-07-29T11:45:53;3.28;;;3.05;;
6093;SDS011;19964;42.060;24.700;2023-07-29T11:48:30;7.15;;;2.90;;
6093;SDS011;19964;42.060;24.700;2023-07-29T11:50:58;3.10;;;2.90;;
6093;SDS011;19964;42.060;24.700;2023-07-29T11:53:29;3.47;;;3.15;;
6093;SDS011;19964;42.060;24.700;2023-07-29T11:55:56;3.80;;;3.00;;
6093;SDS011;19964;42.060;24.700;2023-07-29T11:58:24;4.90;;;3.00;;
6093;SDS011;19964;42.060;24.700;2023-07-29T12:00:52;9.30;;;2.97;;
6093;SDS011;19964;42.060;24.700;2023-07-29T12:03:20;5.43;;;3.00;;
6093;SDS011;19964;42.060;24.700;2023-07-29T12:05:49;6.78;;;2.90;;
6093;SDS011;19964;42.060;24.700;2023-07-29T12:08:17;3.67;;;2.90;;
6093;SDS011;19964;42.060;24.700;2023-07-29T12:10:44;3.47;;;3.28;;
6093;SDS011;19964;42.060;24.700;2023-07-29T12:13:12;2.80;;;2.60;;
6093;SDS011;19964;42.060;24.700;2023-07-29T12:15:39;3.63;;;2.90;;
6093;SDS011;19964;42.060;24.700;2023-07-29T12:18:06;2.78;;;2.50;;
6093;SDS011;19964;42.060;24.700;2023-07-29T12:20:36;4.13;;;2.78;;
6093;SDS011;19964;42.060;24.700;2023-07-29T12:23:05;2.53;;;2.38;;
6093;SDS011;19964;42.060;24.700;2023-07-29T12:25:33;2.42;;;2.20;;
6093;SDS011;19964;42.060;24.700;2023-07-29T12:28:04;3.72;;;2.33;;
6093;SDS011;19964;42.060;24.700;2023-07-29T12:30:32;2.40;;;2.20;;
6093;SDS011;19964;42.060;24.700;2023-07-29T12:33:03;2.83;;;2.63;;
6093;SDS011;19964;42.060;24.700;2023-07-29T12:35:37;2.53;;;2.42;;
6093;SDS011;19964;42.060;24.700;2023-07-29T12:38:06;3.17;;;2.97;;
6093;SDS011;19964;42.060;24.700;2023-07-29T12:40:33;2.90;;;2.70;;
6093;SDS011;19964;42.060;24.700;2023-07-29T12:43:06;3.50;;;3.20;;
6093;SDS011;19964;42.060;24.700;2023-07-29T12:45:35;3.10;;;2.83;;
6093;SDS011;19964;42.060;24.700;2023-07-29T12:48:05;4.18;;;2.78;;
6093;SDS011;19964;42.060;24.700;2023-07-29T12:50:32;4.63;;;3.10;;
6093;SDS011;19964;42.060;24.700;2023-07-29T12:52:59;3.15;;;2.95;;
6093;SDS011;19964;42.060;24.700;2023-07-29T12:55:27;2.85;;;2.65;;
6093;SDS011;19964;42.060;24.700;2023-07-29T12:57:55;3.30;;;2.92;;
6093;SDS011;19964;42.060;24.700;2023-07-29T13:00:23;3.35;;;3.15;;
6093;SDS011;19964;42.060;24.700;2023-07-29T13:02:50;7.00;;;2.85;;
6093;SDS011;19964;42.060;24.700;2023-07-29T13:05:17;2.95;;;2.75;;
6093;SDS011;19964;42.060;24.700;2023-07-29T13:07:44;2.55;;;2.45;;
6093;SDS011;19964;42.060;24.700;2023-07-29T13:10:12;2.50;;;2.40;;
6093;SDS011;19964;42.060;24.700;2023-07-29T13:12:41;2.40;;;2.30;;
6093;SDS011;19964;42.060;24.700;2023-07-29T13:15:08;3.00;;;2.75;;
6093;SDS011;19964;42.060;24.700;2023-07-29T13:17:35;2.78;;;2.50;;
6093;SDS011;19964;42.060;24.700;2023-07-29T13:20:05;2.50;;;2.40;;
6093;SDS011;19964;42.060;24.700;2023-07-29T13:22:33;2.60;;;2.40;;
6093;SDS011;19964;42.060;24.700;2023-07-29T13:25:03;2.20;;;2.10;;
6093;SDS011;19964;42.060;24.700;2023-07-29T13:27:30;3.15;;;1.98;;
6093;SDS011;19964;42.060;24.700;2023-07-29T13:29:59;2.95;;;2.10;;
6093;SDS011;19964;42.060;24.700;2023-07-29T13:39:48;2.63;;;2.45;;
6093;SDS011;19964;42.060;24.700;2023-07-29T13:42:15;2.35;;;2.25;;
6093;SDS011;19964;42.060;24.700;2023-07-29T13:44:42;2.75;;;2.17;;
6093;SDS011;19964;42.060;24.700;2023-07-29T13:47:14;2.88;;;2.20;;
6093;SDS011;19964;42.060;24.700;2023-07-29T13:49:41;2.38;;;2.28;;
6093;SDS011;19964;42.060;24.700;2023-07-29T13:52:08;2.95;;;2.30;;
6093;SDS011;19964;42.060;24.700;2023-07-29T13:54:35;2.70;;;1.98;;
6093;SDS011;19964;42.060;24.700;2023-07-29T13:57:04;2.28;;;2.17;;
6093;SDS011;19964;42.060;24.700;2023-07-29T13:59:31;2.70;;;2.10;;
6093;SDS011;19964;42.060;24.700;2023-07-29T14:01:59;4.22;;;2.22;;
6093;SDS011;19964;42.060;24.700;2023-07-29T14:04:27;2.95;;;2.40;;
6093;SDS011;19964;42.060;24.700;2023-07-29T14:06:55;2.80;;;2.20;;
6093;SDS011;19964;42.060;24.700;2023-07-29T14:09:22;2.20;;;2.10;;
6093;SDS011;19964;42.060;24.700;2023-07-29T14:11:49;2.00;;;1.90;;
6093;SDS011;19964;42.060;24.700;2023-07-29T14:14:18;1.73;;;1.60;;
6093;SDS011;19964;42.060;24.700;2023-07-29T14:16:45;2.85;;;1.98;;
6093;SDS011;19964;42.060;24.700;2023-07-29T14:19:14;1.90;;;1.80;;
6093;SDS011;19964;42.060;24.700;2023-07-29T14:21:43;2.00;;;1.90;;
6093;SDS011;19964;42.060;24.700;2023-07-29T14:24:10;1.55;;;1.55;;
6093;SDS011;19964;42.060;24.700;2023-07-29T14:26:37;2.20;;;2.10;;
6093;SDS011;19964;42.060;24.700;2023-07-29T14:29:04;2.33;;;1.77;;
6093;SDS011;19964;42.060;24.700;2023-07-29T14:31:31;2.80;;;2.50;;
6093;SDS011;19964;42.060;24.700;2023-07-29T14:33:58;3.05;;;1.75;;
6093;SDS011;19964;42.060;24.700;2023-07-29T14:36:28;1.73;;;1.70;;
6093;SDS011;19964;42.060;24.700;2023-07-29T14:38:56;1.85;;;1.75;;
6093;SDS011;19964;42.060;24.700;2023-07-29T14:41:23;2.03;;;1.92;;
6093;SDS011;19964;42.060;24.700;2023-07-29T14:43:51;2.40;;;1.65;;
6093;SDS011;19964;42.060;24.700;2023-07-29T14:46:18;1.67;;;1.63;;
6093;SDS011;19964;42.060;24.700;2023-07-29T14:48:45;2.33;;;2.10;;
6093;SDS011;19964;42.060;24.700;2023-07-29T14:51:13;2.45;;;1.90;;
6093;SDS011;19964;42.060;24.700;2023-07-29T14:53:40;1.90;;;1.80;;
6093;SDS011;19964;42.060;24.700;2023-07-29T14:56:09;4.97;;;1.88;;
6093;SDS011;19964;42.060;24.700;2023-07-29T14:58:38;2.88;;;1.85;;
6093;SDS011;19964;42.060;24.700;2023-07-29T15:01:05;1.92;;;1.83;;
6093;SDS011;19964;42.060;24.700;2023-07-29T15:03:33;5.60;;;1.55;;
6093;SDS011;19964;42.060;24.700;2023-07-29T15:06:00;1.48;;;0.98;;
6093;SDS011;19964;42.060;24.700;2023-07-29T15:08:28;2.22;;;1.40;;
6093;SDS011;19964;42.060;24.700;2023-07-29T15:10:55;1.42;;;1.17;;
6093;SDS011;19964;42.060;24.700;2023-07-29T15:13:23;1.58;;;1.50;;
6093;SDS011;19964;42.060;24.700;2023-07-29T15:15:50;1.60;;;1.50;;
6093;SDS011;19964;42.060;24.700;2023-07-29T15:18:18;1.58;;;1.48;;
6093;SDS011;19964;42.060;24.700;2023-07-29T15:20:45;1.90;;;1.50;;
6093;SDS011;19964;42.060;24.700;2023-07-29T15:23:12;2.05;;;1.60;;
6093;SDS011;19964;42.060;24.700;2023-07-29T15:25:39;1.60;;;1.60;;
6093;SDS011;19964;42.060;24.700;2023-07-29T15:28:06;2.00;;;1.90;;
6093;SDS011;19964;42.060;24.700;2023-07-29T15:30:36;2.05;;;1.75;;
6093;SDS011;19964;42.060;24.700;2023-07-29T15:33:03;1.83;;;1.70;;
6093;SDS011;19964;42.060;24.700;2023-07-29T15:35:30;5.32;;;2.25;;
6093;SDS011;19964;42.060;24.700;2023-07-29T15:38:06;31.52;;;7.93;;
6093;SDS011;19964;42.060;24.700;2023-07-29T15:40:33;11.48;;;4.05;;
6093;SDS011;19964;42.060;24.700;2023-07-29T15:43:00;12.05;;;4.32;;
6093;SDS011;19964;42.060;24.700;2023-07-29T15:45:27;23.45;;;6.10;;
6093;SDS011;19964;42.060;24.700;2023-07-29T15:47:56;5.10;;;2.97;;
6093;SDS011;19964;42.060;24.700;2023-07-29T15:50:23;3.20;;;2.60;;
6093;SDS011;19964;42.060;24.700;2023-07-29T15:52:50;3.58;;;2.50;;
6093;SDS011;19964;42.060;24.700;2023-07-29T15:55:17;2.85;;;2.10;;
6093;SDS011;19964;42.060;24.700;2023-07-29T15:57:44;5.60;;;3.00;;
6093;SDS011;19964;42.060;24.700;2023-07-29T16:00:12;5.80;;;2.80;;
6093;SDS011;19964;42.060;24.700;2023-07-29T16:02:39;6.20;;;3.30;;
6093;SDS011;19964;42.060;24.700;2023-07-29T16:05:08;4.88;;;3.22;;
6093;SDS011;19964;42.060;24.700;2023-07-29T16:07:35;4.60;;;3.00;;
6093;SDS011;19964;42.060;24.700;2023-07-29T16:10:02;5.72;;;2.80;;
6093;SDS011;19964;42.060;24.700;2023-07-29T16:12:30;2.92;;;2.50;;
6093;SDS011;19964;42.060;24.700;2023-07-29T16:15:00;3.13;;;2.83;;
6093;SDS011;19964;42.060;24.700;2023-07-29T16:17:28;3.40;;;2.25;;
6093;SDS011;19964;42.060;24.700;2023-07-29T16:19:55;2.83;;;2.50;;
6093;SDS011;19964;42.060;24.700;2023-07-29T16:22:25;2.50;;;2.30;;
6093;SDS011;19964;42.060;24.700;2023-07-29T16:24:53;3.42;;;2.30;;
6093;SDS011;19964;42.060;24.700;2023-07-29T16:27:20;2.33;;;2.22;;
6093;SDS011;19964;42.060;24.700;2023-07-29T16:29:48;2.70;;;2.50;;
6093;SDS011;19964;42.060;24.700;2023-07-29T16:32:15;2.40;;;2.30;;
6093;SDS011;19964;42.060;24.700;2023-07-29T16:34:44;3.00;;;2.80;;
6093;SDS011;19964;42.060;24.700;2023-07-29T16:37:11;2.60;;;2.40;;
6093;SDS011;19964;42.060;24.700;2023-07-29T16:39:40;3.60;;;2.40;;
6093;SDS011;19964;42.060;24.700;2023-07-29T16:42:07;3.00;;;2.80;;
6093;SDS011;19964;42.060;24.700;2023-07-29T16:44:34;3.17;;;2.63;;
6093;SDS011;19964;42.060;24.700;2023-07-29T16:47:01;2.72;;;2.50;;
6093;SDS011;19964;42.060;24.700;2023-07-29T16:49:29;4.10;;;2.97;;
6093;SDS011;19964;42.060;24.700;2023-07-29T16:51:56;2.63;;;2.53;;
6093;SDS011;19964;42.060;24.700;2023-07-29T16:54:23;4.28;;;2.53;;
6093;SDS011;19964;42.060;24.700;2023-07-29T16:56:51;2.70;;;2.30;;
6093;SDS011;19964;42.060;24.700;2023-07-29T16:59:19;2.28;;;2.17;;
6093;SDS011;19964;42.060;24.700;2023-07-29T17:01:46;2.60;;;2.40;;
6093;SDS011;19964;42.060;24.700;2023-07-29T17:04:13;2.65;;;2.28;;
6093;SDS011;19964;42.060;24.700;2023-07-29T17:06:41;2.20;;;2.10;;
6093;SDS011;19964;42.060;24.700;2023-07-29T17:09:08;2.28;;;2.17;;
6093;SDS011;19964;42.060;24.700;2023-07-29T17:11:35;2.40;;;2.20;;
6093;SDS011;19964;42.060;24.700;2023-07-29T17:14:03;2.50;;;2.33;;
6093;SDS011;19964;42.060;24.700;2023-07-29T17:16:30;2.67;;;2.47;;
6093;SDS011;19964;42.060;24.700;2023-07-29T17:18:57;2.40;;;2.20;;
6093;SDS011;19964;42.060;24.700;2023-07-29T17:21:26;2.25;;;2.15;;
6093;SDS011;19964;42.060;24.700;2023-07-29T17:23:53;2.47;;;2.38;;
6093;SDS011;19964;42.060;24.700;2023-07-29T17:26:20;2.10;;;2.00;;
6093;SDS011;19964;42.060;24.700;2023-07-29T17:28:47;2.65;;;2.38;;
6093;SDS011;19964;42.060;24.700;2023-07-29T17:31:16;2.50;;;2.30;;
6093;SDS011;19964;42.060;24.700;2023-07-29T17:33:43;2.35;;;2.25;;
6093;SDS011;19964;42.060;24.700;2023-07-29T17:36:10;2.33;;;2.15;;
6093;SDS011;19964;42.060;24.700;2023-07-29T17:38:37;3.22;;;2.40;;
6093;SDS011;19964;42.060;24.700;2023-07-29T17:41:06;2.58;;;2.38;;
6093;SDS011;19964;42.060;24.700;2023-07-29T17:43:33;2.78;;;2.58;;
6093;SDS011;19964;42.060;24.700;2023-07-29T17:46:00;2.40;;;2.30;;
6093;SDS011;19964;42.060;24.700;2023-07-29T17:48:28;2.85;;;2.75;;
6093;SDS011;19964;42.060;24.700;2023-07-29T17:50:56;3.25;;;2.95;;
6093;SDS011;19964;42.060;24.700;2023-07-29T17:53:23;3.72;;;2.60;;
6093;SDS011;19964;42.060;24.700;2023-07-29T17:55:50;4.28;;;2.95;;
6093;SDS011;19964;42.060;24.700;2023-07-29T17:58:17;4.15;;;2.70;;
6093;SDS011;19964;42.060;24.700;2023-07-29T18:00:44;2.92;;;2.72;;
6093;SDS011;19964;42.060;24.700;2023-07-29T18:03:11;2.88;;;2.67;;
6093;SDS011;19964;42.060;24.700;2023-07-29T18:05:39;3.00;;;2.70;;
6093;SDS011;19964;42.060;24.700;2023-07-29T18:08:07;3.05;;;2.85;;
6093;SDS011;19964;42.060;24.700;2023-07-29T18:10:34;3.45;;;3.20;;
6093;SDS011;19964;42.060;24.700;2023-07-29T18:13:05;3.40;;;3.17;;
6093;SDS011;19964;42.060;24.700;2023-07-29T18:15:33;4.55;;;3.78;;
6093;SDS011;19964;42.060;24.700;2023-07-29T18:18:00;4.93;;;4.53;;
6093;SDS011;19964;42.060;24.700;2023-07-29T18:20:28;4.10;;;3.80;;
6093;SDS011;19964;42.060;24.700;2023-07-29T18:22:56;4.35;;;3.72;;
6093;SDS011;19964;42.060;24.700;2023-07-29T18:25:30;3.60;;;3.40;;
6093;SDS011;19964;42.060;24.700;2023-07-29T18:27:59;4.70;;;4.40;;
6093;SDS011;19964;42.060;24.700;2023-07-29T18:30:26;6.57;;;5.10;;
6093;SDS011;19964;42.060;24.700;2023-07-29T18:32:53;4.55;;;4.25;;
6093;SDS011;19964;42.060;24.700;2023-07-29T18:35:20;4.55;;;4.15;;
6093;SDS011;19964;42.060;24.700;2023-07-29T18:37:48;4.97;;;4.57;;
6093;SDS011;19964;42.060;24.700;2023-07-29T18:40:19;5.57;;;5.20;;
6093;SDS011;19964;42.060;24.700;2023-07-29T18:42:46;5.32;;;4.88;;
6093;SDS011;19964;42.060;24.700;2023-07-29T18:45:13;5.80;;;5.18;;
6093;SDS011;19964;42.060;24.700;2023-07-29T18:47:41;5.63;;;5.22;;
6093;SDS011;19964;42.060;24.700;2023-07-29T18:50:08;6.13;;;5.57;;
6093;SDS011;19964;42.060;24.700;2023-07-29T18:52:35;5.85;;;5.45;;
6093;SDS011;19964;42.060;24.700;2023-07-29T18:55:03;5.85;;;5.43;;
6093;SDS011;19964;42.060;24.700;2023-07-29T18:57:32;6.88;;;5.90;;
6093;SDS011;19964;42.060;24.700;2023-07-29T18:59:59;6.72;;;6.13;;
6093;SDS011;19964;42.060;24.700;2023-07-29T19:02:28;6.30;;;5.90;;
6093;SDS011;19964;42.060;24.700;2023-07-29T19:04:55;6.30;;;5.70;;
6093;SDS011;19964;42.060;24.700;2023-07-29T19:07:22;6.93;;;6.30;;
6093;SDS011;19964;42.060;24.700;2023-07-29T19:09:50;6.55;;;6.05;;
6093;SDS011;19964;42.060;24.700;2023-07-29T19:12:22;7.03;;;6.43;;
6093;SDS011;19964;42.060;24.700;2023-07-29T19:14:51;6.75;;;6.13;;
6093;SDS011;19964;42.060;24.700;2023-07-29T19:17:18;6.10;;;5.60;;
6093;SDS011;19964;42.060;24.700;2023-07-29T19:19:45;5.95;;;5.47;;
6093;SDS011;19964;42.060;24.700;2023-07-29T19:22:12;5.32;;;4.93;;
6093;SDS011;19964;42.060;24.700;2023-07-29T19:24:39;5.68;;;5.28;;
6093;SDS011;19964;42.060;24.700;2023-07-29T19:27:06;5.65;;;5.25;;
6093;SDS011;19964;42.060;24.700;2023-07-29T19:29:34;5.05;;;4.75;;
6093;SDS011;19964;42.060;24.700;2023-07-29T19:32:02;5.22;;;4.93;;
6093;SDS011;19964;42.060;24.700;2023-07-29T19:34:30;5.18;;;4.85;;
6093;SDS011;19964;42.060;24.700;2023-07-29T19:36:57;5.20;;;4.80;;
6093;SDS011;19964;42.060;24.700;2023-07-29T19:39:24;5.13;;;4.60;;
6093;SDS011;19964;42.060;24.700;2023-07-29T19:41:51;5.05;;;4.75;;
6093;SDS011;19964;42.060;24.700;2023-07-29T19:44:18;6.07;;;5.68;;
6093;SDS011;19964;42.060;24.700;2023-07-29T19:46:45;7.30;;;5.68;;
6093;SDS011;19964;42.060;24.700;2023-07-29T19:49:14;6.05;;;5.43;;
6093;SDS011;19964;42.060;24.700;2023-07-29T19:51:41;6.78;;;5.63;;
6093;SDS011;19964;42.060;24.700;2023-07-29T19:54:11;5.80;;;5.40;;
6093;SDS011;19964;42.060;24.700;2023-07-29T19:56:41;6.03;;;5.45;;
6093;SDS011;19964;42.060;24.700;2023-07-29T20:01:35;5.78;;;5.30;;
6093;SDS011;19964;42.060;24.700;2023-07-29T20:04:02;7.32;;;5.70;;
6093;SDS011;19964;42.060;24.700;2023-07-29T20:06:34;5.38;;;5.00;;
6093;SDS011;19964;42.060;24.700;2023-07-29T20:09:02;5.50;;;5.03;;
6093;SDS011;19964;42.060;24.700;2023-07-29T20:14:00;5.15;;;4.85;;
6093;SDS011;19964;42.060;24.700;2023-07-29T20:16:27;5.22;;;4.82;;
6093;SDS011;19964;42.060;24.700;2023-07-29T20:18:54;5.30;;;4.90;;
6093;SDS011;19964;42.060;24.700;2023-07-29T20:21:21;5.70;;;4.68;;
6093;SDS011;19964;42.060;24.700;2023-07-29T20:23:50;5.28;;;4.78;;
6093;SDS011;19964;42.060;24.700;2023-07-29T20:26:19;4.97;;;4.68;;
6093;SDS011;19964;42.060;24.700;2023-07-29T20:28:47;4.95;;;4.63;;
6093;SDS011;19964;42.060;24.700;2023-07-29T20:31:15;5.20;;;4.70;;
6093;SDS011;19964;42.060;24.700;2023-07-29T20:33:42;4.90;;;4.50;;
6093;SDS011;19964;42.060;24.700;2023-07-29T20:36:10;5.07;;;4.57;;
6093;SDS011;19964;42.060;24.700;2023-07-29T20:38:43;5.32;;;4.90;;
6093;SDS011;19964;42.060;24.700;2023-07-29T20:41:41;4.80;;;4.50;;
6093;SDS011;19964;42.060;24.700;2023-07-29T20:44:08;5.05;;;4.70;;
6093;SDS011;19964;42.060;24.700;2023-07-29T20:46:39;5.00;;;4.50;;
6093;SDS011;19964;42.060;24.700;2023-07-29T20:49:09;4.60;;;4.20;;
6093;SDS011;19964;42.060;24.700;2023-07-29T20:51:36;4.32;;;4.03;;
6093;SDS011;19964;42.060;24.700;2023-07-29T21:16:09;5.18;;;4.43;;
6093;SDS011;19964;42.060;24.700;2023-07-29T21:18:36;4.45;;;4.00;;
6093;SDS011;19964;42.060;24.700;2023-07-29T21:21:03;4.30;;;4.00;;
6093;SDS011;19964;42.060;24.700;2023-07-29T21:23:33;4.10;;;3.80;;
6093;SDS011;19964;42.060;24.700;2023-07-29T21:26:00;4.20;;;3.92;;
6093;SDS011;19964;42.060;24.700;2023-07-29T21:28:31;4.03;;;3.83;;
6093;SDS011;19964;42.060;24.700;2023-07-29T21:31:01;4.47;;;4.03;;
6093;SDS011;19964;42.060;24.700;2023-07-29T21:33:29;4.00;;;3.80;;
6093;SDS011;19964;42.060;24.700;2023-07-29T21:35:56;4.18;;;3.88;;
6093;SDS011;19964;42.060;24.700;2023-07-29T21:38:23;4.40;;;3.97;;
6093;SDS011;19964;42.060;24.700;2023-07-29T21:40:50;4.15;;;3.50;;
6093;SDS011;19964;42.060;24.700;2023-07-29T21:43:17;4.40;;;4.10;;
6093;SDS011;19964;42.060;24.700;2023-07-29T21:45:46;4.35;;;3.72;;
6093;SDS011;19964;42.060;24.700;2023-07-29T21:48:13;4.03;;;3.72;;
6093;SDS011;19964;42.060;24.700;2023-07-29T21:50:40;4.28;;;3.60;;
6093;SDS011;19964;42.060;24.700;2023-07-29T21:53:07;4.15;;;3.85;;
6093;SDS011;19964;42.060;24.700;2023-07-29T21:55:34;3.95;;;3.65;;
6093;SDS011;19964;42.060;24.700;2023-07-29T21:58:05;5.40;;;3.80;;
6093;SDS011;19964;42.060;24.700;2023-07-29T22:00:32;3.88;;;3.55;;
6093;SDS011;19964;42.060;24.700;2023-07-29T22:03:02;3.72;;;3.42;;
6093;SDS011;19964;42.060;24.700;2023-07-29T22:05:29;4.28;;;3.88;;
6093;SDS011;19964;42.060;24.700;2023-07-29T22:07:56;4.15;;;3.80;;
6093;SDS011;19964;42.060;24.700;2023-07-29T22:10:23;4.00;;;3.70;;
6093;SDS011;19964;42.060;24.700;2023-07-29T22:12:50;5.82;;;3.75;;
6093;SDS011;19964;42.060;24.700;2023-07-29T22:15:18;5.60;;;3.95;;
6093;SDS011;19964;42.060;24.700;2023-07-29T22:17:45;4.22;;;3.88;;
6093;SDS011;19964;42.060;24.700;2023-07-29T22:20:14;4.47;;;4.07;;
6093;SDS011;19964;42.060;24.700;2023-07-29T22:22:41;4.15;;;3.85;;
6093;SDS011;19964;42.060;24.700;2023-07-29T22:25:08;4.15;;;3.83;;
6093;SDS011;19964;42.060;24.700;2023-07-29T22:27:35;5.07;;;3.78;;
6093;SDS011;19964;42.060;24.700;2023-07-29T22:30:02;3.80;;;3.50;;
6093;SDS011;19964;42.060;24.700;2023-07-29T22:32:30;4.43;;;3.65;;
6093;SDS011;19964;42.060;24.700;2023-07-29T22:34:57;4.05;;;3.70;;
6093;SDS011;19964;42.060;24.700;2023-07-29T22:37:26;3.80;;;3.50;;
6093;SDS011;19964;42.060;24.700;2023-07-29T22:39:53;4.00;;;3.60;;
6093;SDS011;19964;42.060;24.700;2023-07-29T22:42:20;3.95;;;3.65;;
6093;SDS011;19964;42.060;24.700;2023-07-29T22:44:47;4.25;;;3.95;;
6093;SDS011;19964;42.060;24.700;2023-07-29T22:47:14;4.18;;;3.72;;
6093;SDS011;19964;42.060;24.700;2023-07-29T22:49:41;4.22;;;3.92;;
6093;SDS011;19964;42.060;24.700;2023-07-29T22:52:09;4.20;;;3.80;;
6093;SDS011;19964;42.060;24.700;2023-07-29T22:54:37;4.00;;;3.70;;
6093;SDS011;19964;42.060;24.700;2023-07-29T22:57:05;4.00;;;3.70;;
6093;SDS011;19964;42.060;24.700;2023-07-29T22:59:32;4.53;;;4.13;;
6093;SDS011;19964;42.060;24.700;2023-07-29T23:01:59;4.40;;;4.10;;
6093;SDS011;19964;42.060;24.700;2023-07-29T23:04:26;3.92;;;3.72;;
6093;SDS011;19964;42.060;24.700;2023-07-29T23:06:53;4.30;;;4.00;;
6093;SDS011;19964;42.060;24.700;2023-07-29T23:09:22;4.30;;;4.00;;
6093;SDS011;19964;42.060;24.700;2023-07-29T23:11:51;4.03;;;3.72;;
6093;SDS011;19964;42.060;24.700;2023-07-29T23:14:18;6.30;;;4.20;;
6093;SDS011;19964;42.060;24.700;2023-07-29T23:16:45;4.30;;;4.00;;
6093;SDS011;19964;42.060;24.700;2023-07-29T23:19:12;4.60;;;4.00;;
6093;SDS011;19964;42.060;24.700;2023-07-29T23:21:39;4.37;;;4.07;;
6093;SDS011;19964;42.060;24.700;2023-07-29T23:24:06;4.57;;;4.17;;
6093;SDS011;19964;42.060;24.700;2023-07-29T23:26:33;4.07;;;3.77;;
6093;SDS011;19964;42.060;24.700;2023-07-29T23:29:02;4.53;;;4.10;;
6093;SDS011;19964;42.060;24.700;2023-07-29T23:31:29;4.10;;;3.80;;
6093;SDS011;19964;42.060;24.700;2023-07-29T23:33:56;4.33;;;4.03;;
6093;SDS011;19964;42.060;24.700;2023-07-29T23:36:23;4.73;;;4.20;;
6093;SDS011;19964;42.060;24.700;2023-07-29T23:38:50;5.80;;;3.87;;
6093;SDS011;19964;42.060;24.700;2023-07-29T23:41:17;4.07;;;3.77;;
6093;SDS011;19964;42.060;24.700;2023-07-29T23:43:44;4.17;;;3.80;;
6093;SDS011;19964;42.060;24.700;2023-07-29T23:46:13;4.50;;;3.90;;
6093;SDS011;19964;42.060;24.700;2023-07-29T23:48:40;4.03;;;3.83;;
6093;SDS011;19964;42.060;24.700;2023-07-29T23:51:07;4.50;;;4.00;;
6093;SDS011;19964;42.060;24.700;2023-07-29T23:53:35;4.10;;;3.70;;